Asterion — FICK — position and weather

sailwx.info

Track history (hours):
 
Tides and Currents Weather Stations Pressure Air Temp Water Temp Dewpoint Dewpoint Depression Visibility Wind Speed Wind Dir Waves Ship Positions

Asterion

Last reported at 2015-May-20 21:28 UTC. Time now 2015-May-22 13:05 UTC.
Position N 60°08' E 027°38'.

Length 184 m; draft 9.3 m.

Type: Tanker. MMSI: 226000000.

Date/timePositionNaut miles runAvg speedWind from/ knotsBaromVisibWave heightAir tempDewpointWater temp
2015-May-20 21:28N 60°08' E 027°38'1112.4
2015-May-20 20:33N 60°02' E 027°18'1211.8
2015-May-20 19:33N 59°58' E 026°56'1212.0
2015-May-20 18:33N 59°58' E 026°32'1212.0
2015-May-20 17:33N 59°46' E 026°31'1212.4
2015-May-20 16:33N 59°41' E 026°53'1312.5
2015-May-20 15:32N 59°35' E 027°16'15 0.6
2015-May-19 13:26N 59°29' E 027°43'  
2015-May-16 10:33N 59°44' E 026°43'5212.8
2015-May-16 06:31N 59°48' E 025°00'1212.9
2015-May-16 05:33N 59°45' E 024°36'1312.9
2015-May-16 04:33N 59°41' E 024°12'1312.9
2015-May-16 03:34N 59°37' E 023°47'1313.1
2015-May-16 02:33N 59°33' E 023°23'1713.2
2015-May-16 01:17N 59°28' E 022°51'33112.9
2015-May-14 23:34N 55°39' E 015°26'1312.6
2015-May-14 22:33N 55°32' E 015°07'1312.9
2015-May-14 21:33N 55°26' E 014°47'1312.7
2015-May-14 20:34N 55°18' E 014°30'1312.8
2015-May-14 19:33N 55°09' E 014°13'1312.9
2015-May-14 18:32N 55°10' E 013°51'1313.0
2015-May-14 17:34N 55°10' E 013°28'1312.7
2015-May-14 16:34N 55°12' E 013°06'1313.0
2015-May-14 15:33N 55°16' E 012°45'1010.4
2015-May-14 14:34N 55°26' E 012°40'1010.4
2015-May-14 13:34N 55°35' E 012°50'10 9.8
2015-May-14 12:34N 55°45' E 012°51'1313.0
2015-May-14 11:33N 55°57' E 012°42'1212.4
2015-May-14 10:34N 56°07' E 012°30'1313.4
2015-May-14 09:33N 56°15' E 012°11'1312.8
2015-May-14 08:33N 56°26' E 011°60'1413.9
2015-May-14 07:34N 56°40' E 011°55'1313.2
2015-May-14 06:34N 56°52' E 011°48'1313.2
2015-May-14 05:33N 57°05' E 011°39'1413.7
2015-May-14 04:33N 57°18' E 011°31'1312.8
2015-May-14 03:33N 57°30' E 011°36'1312.5
2015-May-14 02:33N 57°41' E 011°49'2 2.0
2015-May-14 01:32N 57°41' E 011°53'0 0.0
2015-May-14 00:32N 57°41' E 011°53'0 0.0
2015-May-13 23:32N 57°41' E 011°53'0 0.0
2015-May-13 22:32N 57°41' E 011°53'0 0.0
2015-May-13 21:32N 57°41' E 011°53'0 0.0
2015-May-13 20:32N 57°41' E 011°53'0 0.0
2015-May-13 19:32N 57°41' E 011°53'0 0.0
2015-May-13 18:32N 57°41' E 011°53'0 0.0
2015-May-13 17:32N 57°41' E 011°53'0 0.0
2015-May-13 16:32N 57°41' E 011°53'0 0.0
2015-May-13 15:32N 57°41' E 011°53'0 0.0
2015-May-13 14:32N 57°41' E 011°53'0 0.0
2015-May-13 13:32N 57°41' E 011°53'0 0.0
2015-May-13 12:32N 57°41' E 011°53'0 0.0
2015-May-13 11:32N 57°41' E 011°53'0 0.0
2015-May-13 10:32N 57°41' E 011°53'0 0.0
2015-May-13 09:32N 57°41' E 011°53'1 1.3
2015-May-13 08:33N 57°41' E 011°51'9 9.0
2015-May-13 07:33N 57°36' E 011°36'8 7.8
2015-May-13 06:33N 57°39' E 011°23'9 9.3
2015-May-13 05:33N 57°42' E 011°07'1413.5
2015-May-13 04:33N 57°48' E 010°44'1413.7
2015-May-13 03:33N 57°48' E 010°18'21212.9
2015-May-12 11:06N 55°11' E 006°00'6513.0
2015-May-12 06:08N 54°16' E 005°01'813.0
2015-May-12 05:29N 54°09' E 004°53'1213.1
2015-May-12 04:34N 53°58' E 004°42'1313.1
2015-May-12 03:33N 53°49' E 004°27'1312.9
2015-May-12 02:34N 53°40' E 004°10'1313.3
2015-May-12 01:34N 53°32' E 003°53'1312.8
2015-May-12 00:33N 53°22' E 003°40'1613.0
2015-May-11 23:22N 53°08' E 003°29'1113.1
2015-May-11 22:31N 52°57' E 003°23'1313.5
2015-May-11 21:33N 52°45' E 003°17'1713.7
2015-May-11 20:20N 52°28' E 003°17'1013.1
2015-May-11 19:33N 52°18' E 003°20'1313.0
2015-May-11 18:33N 52°08' E 003°34'1212.3
2015-May-11 17:33N 52°04' E 003°53'1111.1
2015-May-11 16:33N 51°58' E 004°08'9 9.5
2015-May-11 15:33N 51°54' E 004°22'0 0.4
2015-May-11 14:26N 51°54' E 004°22'0 0.0
2015-May-11 13:29N 51°54' E 004°22'0 0.0
2015-May-11 12:32N 51°54' E 004°22'0 0.0
2015-May-11 11:17N 51°54' E 004°22'0 0.0
2015-May-11 10:26N 51°54' E 004°22'0 0.0
2015-May-11 09:32N 51°54' E 004°22'0 0.0
2015-May-11 08:32N 51°54' E 004°22'0 0.0
2015-May-11 07:14N 51°54' E 004°22'0 0.0
2015-May-11 06:29N 51°54' E 004°22'0 0.0
2015-May-11 05:32N 51°54' E 004°22'0 0.0
2015-May-11 04:20N 51°54' E 004°22'0 0.0
2015-May-11 03:32N 51°54' E 004°22'0 0.0
2015-May-11 02:32N 51°54' E 004°22'0 0.0
2015-May-11 01:32N 51°54' E 004°22'0 0.0
2015-May-11 00:32N 51°54' E 004°22'0 0.0
2015-May-10 23:32N 51°54' E 004°22'0 0.0
2015-May-10 22:32N 51°54' E 004°22'0 0.0
2015-May-10 21:32N 51°54' E 004°22'  
Track history (hours):
 
Tides and Currents Weather Stations Pressure Air Temp Water Temp Dewpoint Dewpoint Depression Visibility Wind Speed Wind Dir Waves Ship Positions

Asterion

Last reported at 2015-May-20 21:28 UTC. Time now 2015-May-22 13:05 UTC.
Position N 60°08' E 027°38'.

Length 184 m; draft 9.3 m.

Type: Tanker. MMSI: 226000000.

Date/timePositionNaut miles runAvg speedWind from/ knotsBaromVisibWave heightAir tempDewpointWater temp
2015-May-20 21:28N 60°08' E 027°38'1112.4
2015-May-20 20:33N 60°02' E 027°18'1211.8
2015-May-20 19:33N 59°58' E 026°56'1212.0
2015-May-20 18:33N 59°58' E 026°32'1212.0
2015-May-20 17:33N 59°46' E 026°31'1212.4
2015-May-20 16:33N 59°41' E 026°53'1312.5
2015-May-20 15:32N 59°35' E 027°16'15 0.6
2015-May-19 13:26N 59°29' E 027°43'  
2015-May-16 10:33N 59°44' E 026°43'5212.8
2015-May-16 06:31N 59°48' E 025°00'1212.9
2015-May-16 05:33N 59°45' E 024°36'1312.9
2015-May-16 04:33N 59°41' E 024°12'1312.9
2015-May-16 03:34N 59°37' E 023°47'1313.1
2015-May-16 02:33N 59°33' E 023°23'1713.2
2015-May-16 01:17N 59°28' E 022°51'33112.9
2015-May-14 23:34N 55°39' E 015°26'1312.6
2015-May-14 22:33N 55°32' E 015°07'1312.9
2015-May-14 21:33N 55°26' E 014°47'1312.7
2015-May-14 20:34N 55°18' E 014°30'1312.8
2015-May-14 19:33N 55°09' E 014°13'1312.9
2015-May-14 18:32N 55°10' E 013°51'1313.0
2015-May-14 17:34N 55°10' E 013°28'1312.7
2015-May-14 16:34N 55°12' E 013°06'1313.0
2015-May-14 15:33N 55°16' E 012°45'1010.4
2015-May-14 14:34N 55°26' E 012°40'1010.4
2015-May-14 13:34N 55°35' E 012°50'10 9.8
2015-May-14 12:34N 55°45' E 012°51'1313.0
2015-May-14 11:33N 55°57' E 012°42'1212.4
2015-May-14 10:34N 56°07' E 012°30'1313.4
2015-May-14 09:33N 56°15' E 012°11'1312.8
2015-May-14 08:33N 56°26' E 011°60'1413.9
2015-May-14 07:34N 56°40' E 011°55'1313.2
2015-May-14 06:34N 56°52' E 011°48'1313.2
2015-May-14 05:33N 57°05' E 011°39'1413.7
2015-May-14 04:33N 57°18' E 011°31'1312.8
2015-May-14 03:33N 57°30' E 011°36'1312.5
2015-May-14 02:33N 57°41' E 011°49'2 2.0
2015-May-14 01:32N 57°41' E 011°53'0 0.0
2015-May-14 00:32N 57°41' E 011°53'0 0.0
2015-May-13 23:32N 57°41' E 011°53'0 0.0
2015-May-13 22:32N 57°41' E 011°53'0 0.0
2015-May-13 21:32N 57°41' E 011°53'0 0.0
2015-May-13 20:32N 57°41' E 011°53'0 0.0
2015-May-13 19:32N 57°41' E 011°53'0 0.0
2015-May-13 18:32N 57°41' E 011°53'0 0.0
2015-May-13 17:32N 57°41' E 011°53'0 0.0
2015-May-13 16:32N 57°41' E 011°53'0 0.0
2015-May-13 15:32N 57°41' E 011°53'0 0.0
2015-May-13 14:32N 57°41' E 011°53'0 0.0
2015-May-13 13:32N 57°41' E 011°53'0 0.0
2015-May-13 12:32N 57°41' E 011°53'0 0.0
2015-May-13 11:32N 57°41' E 011°53'0 0.0
2015-May-13 10:32N 57°41' E 011°53'0 0.0
2015-May-13 09:32N 57°41' E 011°53'1 1.3
2015-May-13 08:33N 57°41' E 011°51'9 9.0
2015-May-13 07:33N 57°36' E 011°36'8 7.8
2015-May-13 06:33N 57°39' E 011°23'9 9.3
2015-May-13 05:33N 57°42' E 011°07'1413.5
2015-May-13 04:33N 57°48' E 010°44'1413.7
2015-May-13 03:33N 57°48' E 010°18'21212.9
2015-May-12 11:06N 55°11' E 006°00'6513.0
2015-May-12 06:08N 54°16' E 005°01'813.0
2015-May-12 05:29N 54°09' E 004°53'1213.1
2015-May-12 04:34N 53°58' E 004°42'1313.1
2015-May-12 03:33N 53°49' E 004°27'1312.9
2015-May-12 02:34N 53°40' E 004°10'1313.3
2015-May-12 01:34N 53°32' E 003°53'1312.8
2015-May-12 00:33N 53°22' E 003°40'1613.0
2015-May-11 23:22N 53°08' E 003°29'1113.1
2015-May-11 22:31N 52°57' E 003°23'1313.5
2015-May-11 21:33N 52°45' E 003°17'1713.7
2015-May-11 20:20N 52°28' E 003°17'1013.1
2015-May-11 19:33N 52°18' E 003°20'1313.0
2015-May-11 18:33N 52°08' E 003°34'1212.3
2015-May-11 17:33N 52°04' E 003°53'1111.1
2015-May-11 16:33N 51°58' E 004°08'9 9.5
2015-May-11 15:33N 51°54' E 004°22'0 0.4
2015-May-11 14:26N 51°54' E 004°22'0 0.0
2015-May-11 13:29N 51°54' E 004°22'0 0.0
2015-May-11 12:32N 51°54' E 004°22'0 0.0
2015-May-11 11:17N 51°54' E 004°22'0 0.0
2015-May-11 10:26N 51°54' E 004°22'0 0.0
2015-May-11 09:32N 51°54' E 004°22'0 0.0
2015-May-11 08:32N 51°54' E 004°22'0 0.0
2015-May-11 07:14N 51°54' E 004°22'0 0.0
2015-May-11 06:29N 51°54' E 004°22'0 0.0
2015-May-11 05:32N 51°54' E 004°22'0 0.0
2015-May-11 04:20N 51°54' E 004°22'0 0.0
2015-May-11 03:32N 51°54' E 004°22'0 0.0
2015-May-11 02:32N 51°54' E 004°22'0 0.0
2015-May-11 01:32N 51°54' E 004°22'0 0.0
2015-May-11 00:32N 51°54' E 004°22'0 0.0
2015-May-10 23:32N 51°54' E 004°22'0 0.0
2015-May-10 22:32N 51°54' E 004°22'0 0.0
2015-May-10 21:32N 51°54' E 004°22'  

Dump ship's entire track history